Terminal Aerodrome Forecast
Issued by NWS

Home | Current Version | Previous Version | Text Only | Print | Product List | Glossary On
Versions: 1 2 3 4 5 6 7 8 9 10 11 12 13 14 15 16 17 18 19 20 21 22 23
248
FTUS41 KBUF 271530 AAA
TAFJHW
TAF AMD
KJHW 271530Z 2716/2812 18008KT P6SM BKN200
     FM272100 18011KT 5SM -SHRA VCTS OVC050CB
     FM280000 24009KT P6SM VCSH BKN035
     FM280400 26010KT P6SM BKN020
     FM281100 25007KT P6SM BKN035
      AMD LTD TO CLD VIS AND WIND=

USA.gov is the U.S. government's official web portal to all federal, state and local government web resources and services.